sensor_id;sensor_type;location;lat;lon;timestamp;P1;durP1;ratioP1;P2;durP2;ratioP2
27889;SDS011;15238;49.082;9.102;2023-11-21T00:00:14;2.80;;;0.80;;
27889;SDS011;15238;49.082;9.102;2023-11-21T00:02:15;1.58;;;0.45;;
27889;SDS011;15238;49.082;9.102;2023-11-21T00:04:15;1.40;;;0.40;;
27889;SDS011;15238;49.082;9.102;2023-11-21T00:06:16;4.82;;;0.57;;
27889;SDS011;15238;49.082;9.102;2023-11-21T00:08:16;1.85;;;0.40;;
27889;SDS011;15238;49.082;9.102;2023-11-21T00:10:17;1.55;;;0.30;;
27889;SDS011;15238;49.082;9.102;2023-11-21T00:12:17;5.30;;;0.77;;
27889;SDS011;15238;49.082;9.102;2023-11-21T00:14:18;2.33;;;0.55;;
27889;SDS011;15238;49.082;9.102;2023-11-21T00:16:18;4.15;;;0.77;;
27889;SDS011;15238;49.082;9.102;2023-11-21T00:18:19;5.53;;;0.95;;
27889;SDS011;15238;49.082;9.102;2023-11-21T00:20:20;1.58;;;0.55;;
27889;SDS011;15238;49.082;9.102;2023-11-21T00:22:20;7.05;;;0.73;;
27889;SDS011;15238;49.082;9.102;2023-11-21T00:24:21;0.75;;;0.55;;
27889;SDS011;15238;49.082;9.102;2023-11-21T00:26:21;1.77;;;0.70;;
27889;SDS011;15238;49.082;9.102;2023-11-21T00:28:22;5.20;;;0.80;;
27889;SDS011;15238;49.082;9.102;2023-11-21T00:30:22;2.72;;;1.00;;
27889;SDS011;15238;49.082;9.102;2023-11-21T00:32:23;2.00;;;0.90;;
27889;SDS011;15238;49.082;9.102;2023-11-21T00:34:24;2.78;;;1.17;;
27889;SDS011;15238;49.082;9.102;2023-11-21T00:36:24;3.65;;;1.27;;
27889;SDS011;15238;49.082;9.102;2023-11-21T00:38:26;3.83;;;0.80;;
27889;SDS011;15238;49.082;9.102;2023-11-21T00:40:27;3.97;;;0.70;;
27889;SDS011;15238;49.082;9.102;2023-11-21T00:42:27;3.08;;;0.70;;
27889;SDS011;15238;49.082;9.102;2023-11-21T00:44:28;2.80;;;0.70;;
27889;SDS011;15238;49.082;9.102;2023-11-21T00:46:28;1.88;;;0.57;;
27889;SDS011;15238;49.082;9.102;2023-11-21T00:48:29;3.25;;;0.68;;
27889;SDS011;15238;49.082;9.102;2023-11-21T00:50:29;4.40;;;0.60;;
27889;SDS011;15238;49.082;9.102;2023-11-21T00:52:30;2.58;;;0.50;;
27889;SDS011;15238;49.082;9.102;2023-11-21T00:54:30;4.10;;;0.60;;
27889;SDS011;15238;49.082;9.102;2023-11-21T00:56:31;4.10;;;0.82;;
27889;SDS011;15238;49.082;9.102;2023-11-21T00:58:32;2.80;;;0.50;;
27889;SDS011;15238;49.082;9.102;2023-11-21T01:00:33;1.67;;;0.55;;
27889;SDS011;15238;49.082;9.102;2023-11-21T01:02:33;2.05;;;0.40;;
27889;SDS011;15238;49.082;9.102;2023-11-21T01:04:35;5.03;;;0.77;;
27889;SDS011;15238;49.082;9.102;2023-11-21T01:06:36;2.22;;;0.70;;
27889;SDS011;15238;49.082;9.102;2023-11-21T01:08:37;3.72;;;0.57;;
27889;SDS011;15238;49.082;9.102;2023-11-21T01:10:37;2.53;;;0.50;;
27889;SDS011;15238;49.082;9.102;2023-11-21T01:12:38;3.72;;;0.90;;
27889;SDS011;15238;49.082;9.102;2023-11-21T01:14:39;1.45;;;0.60;;
27889;SDS011;15238;49.082;9.102;2023-11-21T01:16:39;3.13;;;0.60;;
27889;SDS011;15238;49.082;9.102;2023-11-21T01:18:40;1.40;;;0.68;;
27889;SDS011;15238;49.082;9.102;2023-11-21T01:20:40;5.63;;;0.60;;
27889;SDS011;15238;49.082;9.102;2023-11-21T01:22:41;2.25;;;0.50;;
27889;SDS011;15238;49.082;9.102;2023-11-21T01:24:42;3.33;;;0.77;;
27889;SDS011;15238;49.082;9.102;2023-11-21T01:26:42;4.18;;;0.63;;
27889;SDS011;15238;49.082;9.102;2023-11-21T01:28:43;1.98;;;0.60;;
27889;SDS011;15238;49.082;9.102;2023-11-21T01:30:43;3.55;;;0.60;;
27889;SDS011;15238;49.082;9.102;2023-11-21T01:32:44;2.97;;;0.50;;
27889;SDS011;15238;49.082;9.102;2023-11-21T01:34:45;4.38;;;0.68;;
27889;SDS011;15238;49.082;9.102;2023-11-21T01:36:46;1.35;;;0.70;;
27889;SDS011;15238;49.082;9.102;2023-11-21T01:38:47;1.92;;;0.75;;
27889;SDS011;15238;49.082;9.102;2023-11-21T01:40:50;0.60;;;0.40;;
27889;SDS011;15238;49.082;9.102;2023-11-21T01:42:50;2.63;;;0.50;;
27889;SDS011;15238;49.082;9.102;2023-11-21T01:44:53;2.17;;;0.50;;
27889;SDS011;15238;49.082;9.102;2023-11-21T01:46:54;1.17;;;0.30;;
27889;SDS011;15238;49.082;9.102;2023-11-21T01:48:57;2.50;;;0.57;;
27889;SDS011;15238;49.082;9.102;2023-11-21T01:50:58;3.13;;;0.85;;
27889;SDS011;15238;49.082;9.102;2023-11-21T01:52:58;2.10;;;0.50;;
27889;SDS011;15238;49.082;9.102;2023-11-21T01:55:00;4.22;;;0.20;;
27889;SDS011;15238;49.082;9.102;2023-11-21T01:57:02;4.47;;;0.93;;
27889;SDS011;15238;49.082;9.102;2023-11-21T01:59:06;2.42;;;0.30;;
27889;SDS011;15238;49.082;9.102;2023-11-21T02:01:07;2.85;;;0.95;;
27889;SDS011;15238;49.082;9.102;2023-11-21T02:03:07;1.42;;;0.40;;
27889;SDS011;15238;49.082;9.102;2023-11-21T02:05:10;2.05;;;0.68;;
27889;SDS011;15238;49.082;9.102;2023-11-21T02:07:14;1.58;;;0.88;;
27889;SDS011;15238;49.082;9.102;2023-11-21T02:09:15;2.17;;;0.90;;
27889;SDS011;15238;49.082;9.102;2023-11-21T02:11:15;2.15;;;0.60;;
27889;SDS011;15238;49.082;9.102;2023-11-21T02:13:16;2.88;;;0.63;;
27889;SDS011;15238;49.082;9.102;2023-11-21T02:15:17;4.65;;;0.82;;
27889;SDS011;15238;49.082;9.102;2023-11-21T02:17:21;0.77;;;0.60;;
27889;SDS011;15238;49.082;9.102;2023-11-21T02:19:21;0.70;;;0.35;;
27889;SDS011;15238;49.082;9.102;2023-11-21T02:21:25;2.47;;;0.40;;
27889;SDS011;15238;49.082;9.102;2023-11-21T02:23:26;2.05;;;0.20;;
27889;SDS011;15238;49.082;9.102;2023-11-21T02:25:32;1.20;;;0.45;;
27889;SDS011;15238;49.082;9.102;2023-11-21T02:27:33;0.85;;;0.30;;
27889;SDS011;15238;49.082;9.102;2023-11-21T02:29:33;3.92;;;0.50;;
27889;SDS011;15238;49.082;9.102;2023-11-21T02:31:34;1.27;;;0.50;;
27889;SDS011;15238;49.082;9.102;2023-11-21T02:33:34;0.60;;;0.40;;
27889;SDS011;15238;49.082;9.102;2023-11-21T02:35:35;2.50;;;0.40;;
27889;SDS011;15238;49.082;9.102;2023-11-21T02:37:35;0.80;;;0.30;;
27889;SDS011;15238;49.082;9.102;2023-11-21T02:39:36;1.23;;;0.35;;
27889;SDS011;15238;49.082;9.102;2023-11-21T02:41:39;2.25;;;0.60;;
27889;SDS011;15238;49.082;9.102;2023-11-21T02:43:40;0.90;;;0.47;;
27889;SDS011;15238;49.082;9.102;2023-11-21T02:45:40;7.43;;;0.57;;
27889;SDS011;15238;49.082;9.102;2023-11-21T02:47:42;0.85;;;0.40;;
27889;SDS011;15238;49.082;9.102;2023-11-21T02:49:43;3.22;;;0.43;;
27889;SDS011;15238;49.082;9.102;2023-11-21T02:51:43;4.50;;;0.43;;
27889;SDS011;15238;49.082;9.102;2023-11-21T02:53:44;2.00;;;0.55;;
27889;SDS011;15238;49.082;9.102;2023-11-21T02:55:46;1.70;;;0.80;;
27889;SDS011;15238;49.082;9.102;2023-11-21T02:57:47;2.95;;;0.50;;
27889;SDS011;15238;49.082;9.102;2023-11-21T02:59:48;1.17;;;0.30;;
27889;SDS011;15238;49.082;9.102;2023-11-21T03:01:48;2.30;;;0.40;;
27889;SDS011;15238;49.082;9.102;2023-11-21T03:03:49;1.52;;;0.40;;
27889;SDS011;15238;49.082;9.102;2023-11-21T03:05:51;1.83;;;0.50;;
27889;SDS011;15238;49.082;9.102;2023-11-21T03:07:51;1.73;;;0.60;;
27889;SDS011;15238;49.082;9.102;2023-11-21T03:09:52;2.50;;;0.50;;
27889;SDS011;15238;49.082;9.102;2023-11-21T03:11:53;2.15;;;0.70;;
27889;SDS011;15238;49.082;9.102;2023-11-21T03:13:54;2.72;;;0.98;;
27889;SDS011;15238;49.082;9.102;2023-11-21T03:15:54;2.13;;;0.70;;
27889;SDS011;15238;49.082;9.102;2023-11-21T03:17:55;2.63;;;0.60;;
27889;SDS011;15238;49.082;9.102;2023-11-21T03:19:57;2.88;;;0.50;;
27889;SDS011;15238;49.082;9.102;2023-11-21T03:21:57;2.10;;;0.50;;
27889;SDS011;15238;49.082;9.102;2023-11-21T03:23:58;2.17;;;0.30;;
27889;SDS011;15238;49.082;9.102;2023-11-21T03:26:00;0.70;;;0.30;;
27889;SDS011;15238;49.082;9.102;2023-11-21T03:28:00;1.83;;;0.50;;
27889;SDS011;15238;49.082;9.102;2023-11-21T03:30:01;3.53;;;0.63;;
27889;SDS011;15238;49.082;9.102;2023-11-21T03:32:04;2.05;;;0.40;;
27889;SDS011;15238;49.082;9.102;2023-11-21T03:34:04;0.98;;;0.40;;
27889;SDS011;15238;49.082;9.102;2023-11-21T03:36:06;1.60;;;0.35;;
27889;SDS011;15238;49.082;9.102;2023-11-21T03:38:08;1.13;;;0.40;;
27889;SDS011;15238;49.082;9.102;2023-11-21T03:40:10;1.13;;;0.40;;
27889;SDS011;15238;49.082;9.102;2023-11-21T03:42:12;1.20;;;0.30;;
27889;SDS011;15238;49.082;9.102;2023-11-21T03:44:13;1.67;;;0.77;;
27889;SDS011;15238;49.082;9.102;2023-11-21T03:46:14;1.52;;;0.40;;
27889;SDS011;15238;49.082;9.102;2023-11-21T03:48:14;3.63;;;0.60;;
27889;SDS011;15238;49.082;9.102;2023-11-21T03:50:16;4.15;;;0.80;;
27889;SDS011;15238;49.082;9.102;2023-11-21T03:52:16;3.42;;;0.60;;
27889;SDS011;15238;49.082;9.102;2023-11-21T03:54:17;3.92;;;0.60;;
27889;SDS011;15238;49.082;9.102;2023-11-21T03:56:18;3.05;;;0.80;;
27889;SDS011;15238;49.082;9.102;2023-11-21T03:58:20;2.63;;;0.52;;
27889;SDS011;15238;49.082;9.102;2023-11-21T04:00:21;9.98;;;1.60;;
27889;SDS011;15238;49.082;9.102;2023-11-21T04:02:21;3.13;;;0.70;;
27889;SDS011;15238;49.082;9.102;2023-11-21T04:04:22;1.33;;;0.45;;
27889;SDS011;15238;49.082;9.102;2023-11-21T04:06:23;2.33;;;0.75;;
27889;SDS011;15238;49.082;9.102;2023-11-21T04:08:23;3.40;;;0.63;;
27889;SDS011;15238;49.082;9.102;2023-11-21T04:10:25;4.20;;;0.70;;
27889;SDS011;15238;49.082;9.102;2023-11-21T04:12:27;2.38;;;0.63;;
27889;SDS011;15238;49.082;9.102;2023-11-21T04:14:27;1.10;;;0.68;;
27889;SDS011;15238;49.082;9.102;2023-11-21T04:16:28;0.80;;;0.40;;
27889;SDS011;15238;49.082;9.102;2023-11-21T04:18:29;3.28;;;0.63;;
27889;SDS011;15238;49.082;9.102;2023-11-21T04:20:29;1.98;;;0.43;;
27889;SDS011;15238;49.082;9.102;2023-11-21T04:22:29;3.72;;;0.60;;
27889;SDS011;15238;49.082;9.102;2023-11-21T04:24:30;2.05;;;0.77;;
27889;SDS011;15238;49.082;9.102;2023-11-21T04:26:31;3.35;;;0.70;;
27889;SDS011;15238;49.082;9.102;2023-11-21T04:28:31;3.30;;;0.68;;
27889;SDS011;15238;49.082;9.102;2023-11-21T04:30:32;3.78;;;0.75;;
27889;SDS011;15238;49.082;9.102;2023-11-21T04:32:33;1.15;;;0.68;;
27889;SDS011;15238;49.082;9.102;2023-11-21T04:34:33;4.20;;;0.73;;
27889;SDS011;15238;49.082;9.102;2023-11-21T04:36:34;1.85;;;0.50;;
27889;SDS011;15238;49.082;9.102;2023-11-21T04:38:35;3.08;;;0.70;;
27889;SDS011;15238;49.082;9.102;2023-11-21T04:40:35;2.65;;;0.60;;
27889;SDS011;15238;49.082;9.102;2023-11-21T04:42:36;3.08;;;0.50;;
27889;SDS011;15238;49.082;9.102;2023-11-21T04:44:36;1.55;;;0.75;;
27889;SDS011;15238;49.082;9.102;2023-11-21T04:46:37;4.78;;;0.60;;
27889;SDS011;15238;49.082;9.102;2023-11-21T04:48:38;0.43;;;0.40;;
27889;SDS011;15238;49.082;9.102;2023-11-21T04:50:38;1.20;;;0.60;;
27889;SDS011;15238;49.082;9.102;2023-11-21T04:52:39;2.20;;;0.60;;
27889;SDS011;15238;49.082;9.102;2023-11-21T04:54:39;1.95;;;0.63;;
27889;SDS011;15238;49.082;9.102;2023-11-21T04:56:40;4.47;;;1.63;;
27889;SDS011;15238;49.082;9.102;2023-11-21T04:58:40;2.38;;;0.80;;
27889;SDS011;15238;49.082;9.102;2023-11-21T05:00:41;4.68;;;0.70;;
27889;SDS011;15238;49.082;9.102;2023-11-21T05:02:41;2.67;;;0.90;;
27889;SDS011;15238;49.082;9.102;2023-11-21T05:04:42;1.38;;;0.80;;
27889;SDS011;15238;49.082;9.102;2023-11-21T05:06:45;3.10;;;0.85;;
27889;SDS011;15238;49.082;9.102;2023-11-21T05:08:46;1.70;;;0.93;;
27889;SDS011;15238;49.082;9.102;2023-11-21T05:10:47;3.00;;;1.10;;
27889;SDS011;15238;49.082;9.102;2023-11-21T05:12:49;3.97;;;0.98;;
27889;SDS011;15238;49.082;9.102;2023-11-21T05:14:51;2.58;;;1.00;;
27889;SDS011;15238;49.082;9.102;2023-11-21T05:16:51;1.25;;;1.02;;
27889;SDS011;15238;49.082;9.102;2023-11-21T05:18:52;1.60;;;1.15;;
27889;SDS011;15238;49.082;9.102;2023-11-21T05:20:52;1.60;;;0.75;;
27889;SDS011;15238;49.082;9.102;2023-11-21T05:22:53;3.03;;;0.98;;
27889;SDS011;15238;49.082;9.102;2023-11-21T05:24:54;1.77;;;0.90;;
27889;SDS011;15238;49.082;9.102;2023-11-21T05:26:54;1.88;;;0.90;;
27889;SDS011;15238;49.082;9.102;2023-11-21T05:28:56;1.85;;;1.00;;
27889;SDS011;15238;49.082;9.102;2023-11-21T05:30:56;2.40;;;1.00;;
27889;SDS011;15238;49.082;9.102;2023-11-21T05:32:57;2.08;;;1.40;;
27889;SDS011;15238;49.082;9.102;2023-11-21T05:34:57;2.63;;;1.20;;
27889;SDS011;15238;49.082;9.102;2023-11-21T05:36:58;1.20;;;1.10;;
27889;SDS011;15238;49.082;9.102;2023-11-21T05:38:59;2.38;;;0.90;;
27889;SDS011;15238;49.082;9.102;2023-11-21T05:40:59;3.45;;;1.23;;
27889;SDS011;15238;49.082;9.102;2023-11-21T05:42:59;3.10;;;1.00;;
27889;SDS011;15238;49.082;9.102;2023-11-21T05:45:00;1.13;;;0.93;;
27889;SDS011;15238;49.082;9.102;2023-11-21T05:47:09;1.40;;;1.10;;
27889;SDS011;15238;49.082;9.102;2023-11-21T05:49:10;3.35;;;1.38;;
27889;SDS011;15238;49.082;9.102;2023-11-21T05:51:10;3.45;;;1.48;;
27889;SDS011;15238;49.082;9.102;2023-11-21T05:53:12;3.53;;;1.40;;
27889;SDS011;15238;49.082;9.102;2023-11-21T05:55:15;2.45;;;1.90;;
27889;SDS011;15238;49.082;9.102;2023-11-21T05:57:16;3.00;;;2.10;;
27889;SDS011;15238;49.082;9.102;2023-11-21T05:59:17;7.63;;;2.63;;
27889;SDS011;15238;49.082;9.102;2023-11-21T06:01:17;3.90;;;2.50;;
27889;SDS011;15238;49.082;9.102;2023-11-21T06:03:18;5.00;;;3.05;;
27889;SDS011;15238;49.082;9.102;2023-11-21T06:05:19;6.80;;;4.53;;
27889;SDS011;15238;49.082;9.102;2023-11-21T06:07:20;5.65;;;3.95;;
27889;SDS011;15238;49.082;9.102;2023-11-21T06:09:21;5.82;;;3.08;;
27889;SDS011;15238;49.082;9.102;2023-11-21T06:11:22;4.53;;;3.03;;
27889;SDS011;15238;49.082;9.102;2023-11-21T06:13:24;4.95;;;2.55;;
27889;SDS011;15238;49.082;9.102;2023-11-21T06:15:24;4.60;;;1.63;;
27889;SDS011;15238;49.082;9.102;2023-11-21T06:17:25;3.22;;;1.50;;
27889;SDS011;15238;49.082;9.102;2023-11-21T06:19:28;3.88;;;1.38;;
27889;SDS011;15238;49.082;9.102;2023-11-21T06:21:28;3.60;;;2.22;;
27889;SDS011;15238;49.082;9.102;2023-11-21T06:23:28;3.10;;;1.92;;
27889;SDS011;15238;49.082;9.102;2023-11-21T06:25:29;3.15;;;1.60;;
27889;SDS011;15238;49.082;9.102;2023-11-21T06:27:33;2.80;;;1.45;;
27889;SDS011;15238;49.082;9.102;2023-11-21T06:29:47;5.53;;;1.70;;
27889;SDS011;15238;49.082;9.102;2023-11-21T06:31:48;4.60;;;2.20;;
27889;SDS011;15238;49.082;9.102;2023-11-21T06:33:49;4.55;;;1.60;;
27889;SDS011;15238;49.082;9.102;2023-11-21T06:35:51;4.40;;;1.67;;
27889;SDS011;15238;49.082;9.102;2023-11-21T06:37:52;7.25;;;1.88;;
27889;SDS011;15238;49.082;9.102;2023-11-21T06:39:53;6.18;;;2.53;;
27889;SDS011;15238;49.082;9.102;2023-11-21T06:41:54;3.72;;;2.00;;
27889;SDS011;15238;49.082;9.102;2023-11-21T06:43:54;5.97;;;1.60;;
27889;SDS011;15238;49.082;9.102;2023-11-21T06:45:55;8.38;;;1.95;;
27889;SDS011;15238;49.082;9.102;2023-11-21T06:47:55;4.82;;;1.60;;
27889;SDS011;15238;49.082;9.102;2023-11-21T06:49:56;2.92;;;1.73;;
27889;SDS011;15238;49.082;9.102;2023-11-21T06:51:57;3.95;;;1.98;;
27889;SDS011;15238;49.082;9.102;2023-11-21T06:53:58;3.85;;;1.70;;
27889;SDS011;15238;49.082;9.102;2023-11-21T06:55:59;4.95;;;2.10;;
27889;SDS011;15238;49.082;9.102;2023-11-21T06:58:00;2.70;;;1.88;;
27889;SDS011;15238;49.082;9.102;2023-11-21T07:00:00;2.42;;;1.90;;
27889;SDS011;15238;49.082;9.102;2023-11-21T07:02:01;6.70;;;1.90;;
27889;SDS011;15238;49.082;9.102;2023-11-21T07:04:01;4.40;;;1.92;;
27889;SDS011;15238;49.082;9.102;2023-11-21T07:06:02;4.07;;;2.13;;
27889;SDS011;15238;49.082;9.102;2023-11-21T07:08:03;6.45;;;2.10;;
27889;SDS011;15238;49.082;9.102;2023-11-21T07:10:04;6.00;;;1.98;;
27889;SDS011;15238;49.082;9.102;2023-11-21T07:12:05;3.80;;;1.67;;
27889;SDS011;15238;49.082;9.102;2023-11-21T07:14:07;7.20;;;2.15;;
27889;SDS011;15238;49.082;9.102;2023-11-21T07:16:08;6.50;;;2.40;;
27889;SDS011;15238;49.082;9.102;2023-11-21T07:18:10;2.47;;;1.80;;
27889;SDS011;15238;49.082;9.102;2023-11-21T07:20:11;3.63;;;2.40;;
27889;SDS011;15238;49.082;9.102;2023-11-21T07:22:12;6.07;;;1.88;;
27889;SDS011;15238;49.082;9.102;2023-11-21T07:24:13;3.60;;;2.20;;
27889;SDS011;15238;49.082;9.102;2023-11-21T07:26:14;3.97;;;2.00;;
27889;SDS011;15238;49.082;9.102;2023-11-21T07:28:14;5.43;;;2.25;;
27889;SDS011;15238;49.082;9.102;2023-11-21T07:30:15;7.07;;;3.03;;
27889;SDS011;15238;49.082;9.102;2023-11-21T07:32:16;6.50;;;2.65;;
27889;SDS011;15238;49.082;9.102;2023-11-21T07:34:16;9.15;;;2.40;;
27889;SDS011;15238;49.082;9.102;2023-11-21T07:36:17;8.68;;;2.90;;
27889;SDS011;15238;49.082;9.102;2023-11-21T07:38:18;7.88;;;2.70;;
27889;SDS011;15238;49.082;9.102;2023-11-21T07:40:19;5.72;;;2.50;;
27889;SDS011;15238;49.082;9.102;2023-11-21T07:42:19;4.75;;;2.45;;
27889;SDS011;15238;49.082;9.102;2023-11-21T07:44:20;5.63;;;2.65;;
27889;SDS011;15238;49.082;9.102;2023-11-21T07:46:21;7.05;;;3.72;;
27889;SDS011;15238;49.082;9.102;2023-11-21T07:48:22;5.13;;;2.63;;
27889;SDS011;15238;49.082;9.102;2023-11-21T07:50:22;5.82;;;2.80;;
27889;SDS011;15238;49.082;9.102;2023-11-21T07:52:23;5.30;;;3.25;;
27889;SDS011;15238;49.082;9.102;2023-11-21T07:54:24;6.55;;;2.90;;
27889;SDS011;15238;49.082;9.102;2023-11-21T07:56:24;5.45;;;3.17;;
27889;SDS011;15238;49.082;9.102;2023-11-21T07:58:25;5.03;;;2.83;;
27889;SDS011;15238;49.082;9.102;2023-11-21T08:00:25;5.63;;;2.95;;
27889;SDS011;15238;49.082;9.102;2023-11-21T08:02:30;6.20;;;3.42;;
27889;SDS011;15238;49.082;9.102;2023-11-21T08:04:30;5.65;;;3.20;;
27889;SDS011;15238;49.082;9.102;2023-11-21T08:06:32;7.30;;;2.90;;
27889;SDS011;15238;49.082;9.102;2023-11-21T08:08:33;6.22;;;3.03;;
27889;SDS011;15238;49.082;9.102;2023-11-21T08:10:33;4.80;;;2.67;;
27889;SDS011;15238;49.082;9.102;2023-11-21T08:12:35;5.65;;;2.90;;
27889;SDS011;15238;49.082;9.102;2023-11-21T08:14:36;5.63;;;2.88;;
27889;SDS011;15238;49.082;9.102;2023-11-21T08:16:38;4.85;;;2.80;;
27889;SDS011;15238;49.082;9.102;2023-11-21T08:18:39;6.13;;;2.78;;
27889;SDS011;15238;49.082;9.102;2023-11-21T08:20:41;4.03;;;2.70;;
27889;SDS011;15238;49.082;9.102;2023-11-21T08:22:42;5.97;;;3.03;;
27889;SDS011;15238;49.082;9.102;2023-11-21T08:24:43;6.03;;;2.90;;
27889;SDS011;15238;49.082;9.102;2023-11-21T08:26:44;3.33;;;2.50;;
27889;SDS011;15238;49.082;9.102;2023-11-21T08:28:44;4.93;;;2.95;;
27889;SDS011;15238;49.082;9.102;2023-11-21T08:30:45;4.40;;;2.50;;
27889;SDS011;15238;49.082;9.102;2023-11-21T08:32:46;4.43;;;2.22;;
27889;SDS011;15238;49.082;9.102;2023-11-21T08:34:46;4.03;;;2.08;;
27889;SDS011;15238;49.082;9.102;2023-11-21T08:36:50;2.80;;;1.88;;
27889;SDS011;15238;49.082;9.102;2023-11-21T08:38:51;3.88;;;1.30;;
27889;SDS011;15238;49.082;9.102;2023-11-21T08:40:54;2.60;;;1.50;;
27889;SDS011;15238;49.082;9.102;2023-11-21T08:42:55;2.20;;;1.20;;
27889;SDS011;15238;49.082;9.102;2023-11-21T08:44:56;2.20;;;1.30;;
27889;SDS011;15238;49.082;9.102;2023-11-21T08:46:59;2.38;;;0.90;;
27889;SDS011;15238;49.082;9.102;2023-11-21T08:49:03;2.10;;;0.85;;
27889;SDS011;15238;49.082;9.102;2023-11-21T08:51:04;4.35;;;1.05;;
27889;SDS011;15238;49.082;9.102;2023-11-21T08:53:04;1.52;;;1.00;;
27889;SDS011;15238;49.082;9.102;2023-11-21T08:55:06;4.43;;;1.10;;
27889;SDS011;15238;49.082;9.102;2023-11-21T08:57:12;1.92;;;0.82;;
27889;SDS011;15238;49.082;9.102;2023-11-21T08:59:13;1.75;;;0.80;;
27889;SDS011;15238;49.082;9.102;2023-11-21T09:01:14;0.93;;;0.50;;
27889;SDS011;15238;49.082;9.102;2023-11-21T09:03:14;1.33;;;0.73;;
27889;SDS011;15238;49.082;9.102;2023-11-21T09:05:15;4.25;;;0.47;;
27889;SDS011;15238;49.082;9.102;2023-11-21T09:07:16;1.73;;;0.68;;
27889;SDS011;15238;49.082;9.102;2023-11-21T09:09:20;2.40;;;0.40;;
27889;SDS011;15238;49.082;9.102;2023-11-21T09:11:20;0.63;;;0.50;;
27889;SDS011;15238;49.082;9.102;2023-11-21T09:13:21;1.30;;;0.60;;
27889;SDS011;15238;49.082;9.102;2023-11-21T09:15:22;1.30;;;0.75;;
27889;SDS011;15238;49.082;9.102;2023-11-21T09:17:22;1.23;;;0.70;;
27889;SDS011;15238;49.082;9.102;2023-11-21T09:19:23;1.30;;;0.60;;
27889;SDS011;15238;49.082;9.102;2023-11-21T09:21:24;1.45;;;0.85;;
27889;SDS011;15238;49.082;9.102;2023-11-21T09:23:25;1.15;;;0.63;;
27889;SDS011;15238;49.082;9.102;2023-11-21T09:25:26;1.77;;;0.70;;
27889;SDS011;15238;49.082;9.102;2023-11-21T09:27:28;2.25;;;0.85;;
27889;SDS011;15238;49.082;9.102;2023-11-21T09:29:29;2.33;;;0.90;;
27889;SDS011;15238;49.082;9.102;2023-11-21T09:31:30;2.25;;;0.80;;
27889;SDS011;15238;49.082;9.102;2023-11-21T09:33:31;2.90;;;0.90;;
27889;SDS011;15238;49.082;9.102;2023-11-21T09:35:31;1.27;;;0.93;;
27889;SDS011;15238;49.082;9.102;2023-11-21T09:37:32;1.40;;;0.90;;
27889;SDS011;15238;49.082;9.102;2023-11-21T09:39:33;0.88;;;0.85;;
27889;SDS011;15238;49.082;9.102;2023-11-21T09:41:40;1.50;;;0.73;;
27889;SDS011;15238;49.082;9.102;2023-11-21T09:43:46;1.73;;;0.90;;
27889;SDS011;15238;49.082;9.102;2023-11-21T09:45:59;3.83;;;1.02;;
27889;SDS011;15238;49.082;9.102;2023-11-21T09:48:01;1.05;;;0.82;;
27889;SDS011;15238;49.082;9.102;2023-11-21T09:50:02;0.70;;;0.60;;
27889;SDS011;15238;49.082;9.102;2023-11-21T09:52:04;0.60;;;0.45;;
27889;SDS011;15238;49.082;9.102;2023-11-21T09:54:08;0.60;;;0.40;;
27889;SDS011;15238;49.082;9.102;2023-11-21T09:56:10;0.60;;;0.30;;
27889;SDS011;15238;49.082;9.102;2023-11-21T09:58:10;0.88;;;0.60;;
27889;SDS011;15238;49.082;9.102;2023-11-21T10:00:12;2.42;;;0.75;;
27889;SDS011;15238;49.082;9.102;2023-11-21T10:02:14;1.05;;;0.70;;
27889;SDS011;15238;49.082;9.102;2023-11-21T10:04:18;0.68;;;0.68;;
27889;SDS011;15238;49.082;9.102;2023-11-21T10:06:20;0.68;;;0.68;;
27889;SDS011;15238;49.082;9.102;2023-11-21T10:08:22;0.63;;;0.63;;
27889;SDS011;15238;49.082;9.102;2023-11-21T10:10:24;1.83;;;0.60;;
27889;SDS011;15238;49.082;9.102;2023-11-21T10:12:25;0.80;;;0.52;;
27889;SDS011;15238;49.082;9.102;2023-11-21T10:14:28;0.40;;;0.40;;
27889;SDS011;15238;49.082;9.102;2023-11-21T10:16:30;0.60;;;0.60;;
27889;SDS011;15238;49.082;9.102;2023-11-21T10:18:32;3.08;;;2.13;;
27889;SDS011;15238;49.082;9.102;2023-11-21T10:20:34;11.07;;;6.45;;
27889;SDS011;15238;49.082;9.102;2023-11-21T10:22:34;6.75;;;4.30;;
27889;SDS011;15238;49.082;9.102;2023-11-21T10:24:35;8.35;;;4.40;;
27889;SDS011;15238;49.082;9.102;2023-11-21T10:26:37;4.03;;;2.05;;
27889;SDS011;15238;49.082;9.102;2023-11-21T10:28:38;1.70;;;1.00;;
27889;SDS011;15238;49.082;9.102;2023-11-21T10:30:39;0.60;;;0.60;;
27889;SDS011;15238;49.082;9.102;2023-11-21T10:32:39;1.38;;;0.70;;
27889;SDS011;15238;49.082;9.102;2023-11-21T10:34:41;0.73;;;0.57;;
27889;SDS011;15238;49.082;9.102;2023-11-21T10:36:42;2.30;;;0.80;;
27889;SDS011;15238;49.082;9.102;2023-11-21T10:38:43;0.73;;;0.60;;
27889;SDS011;15238;49.082;9.102;2023-11-21T10:40:45;0.68;;;0.60;;
27889;SDS011;15238;49.082;9.102;2023-11-21T10:42:46;0.47;;;0.47;;
27889;SDS011;15238;49.082;9.102;2023-11-21T10:44:47;1.10;;;0.60;;
27889;SDS011;15238;49.082;9.102;2023-11-21T10:46:51;0.98;;;0.70;;
27889;SDS011;15238;49.082;9.102;2023-11-21T10:48:55;1.05;;;0.52;;
27889;SDS011;15238;49.082;9.102;2023-11-21T10:50:56;2.58;;;0.70;;
27889;SDS011;15238;49.082;9.102;2023-11-21T10:52:57;1.35;;;0.80;;
27889;SDS011;15238;49.082;9.102;2023-11-21T10:54:57;1.25;;;1.05;;
27889;SDS011;15238;49.082;9.102;2023-11-21T10:57:01;0.90;;;0.90;;
27889;SDS011;15238;49.082;9.102;2023-11-21T10:59:04;0.95;;;0.85;;
27889;SDS011;15238;49.082;9.102;2023-11-21T11:01:06;0.80;;;0.80;;
27889;SDS011;15238;49.082;9.102;2023-11-21T11:03:08;1.33;;;0.82;;
27889;SDS011;15238;49.082;9.102;2023-11-21T11:05:15;1.13;;;0.90;;
27889;SDS011;15238;49.082;9.102;2023-11-21T11:07:17;0.88;;;0.88;;
27889;SDS011;15238;49.082;9.102;2023-11-21T11:09:19;2.67;;;0.90;;
27889;SDS011;15238;49.082;9.102;2023-11-21T11:11:20;1.17;;;1.08;;
27889;SDS011;15238;49.082;9.102;2023-11-21T11:13:21;1.55;;;1.10;;
27889;SDS011;15238;49.082;9.102;2023-11-21T11:15:23;0.70;;;0.70;;
27889;SDS011;15238;49.082;9.102;2023-11-21T11:17:27;2.17;;;1.20;;
27889;SDS011;15238;49.082;9.102;2023-11-21T11:19:28;4.95;;;1.10;;
27889;SDS011;15238;49.082;9.102;2023-11-21T11:28:40;1.63;;;1.35;;
27889;SDS011;15238;49.082;9.102;2023-11-21T11:35:47;1.23;;;0.73;;
27889;SDS011;15238;49.082;9.102;2023-11-21T11:38:01;0.95;;;0.60;;
27889;SDS011;15238;49.082;9.102;2023-11-21T11:40:04;1.27;;;0.80;;
27889;SDS011;15238;49.082;9.102;2023-11-21T11:42:07;0.40;;;0.40;;
27889;SDS011;15238;49.082;9.102;2023-11-21T11:44:46;0.50;;;0.40;;
27889;SDS011;15238;49.082;9.102;2023-11-21T11:46:47;0.50;;;0.47;;
27889;SDS011;15238;49.082;9.102;2023-11-21T11:48:48;1.73;;;0.47;;
27889;SDS011;15238;49.082;9.102;2023-11-21T11:51:20;1.90;;;0.40;;
27889;SDS011;15238;49.082;9.102;2023-11-21T11:53:21;0.52;;;0.32;;
27889;SDS011;15238;49.082;9.102;2023-11-21T11:55:23;0.70;;;0.38;;
27889;SDS011;15238;49.082;9.102;2023-11-21T11:57:24;1.13;;;0.40;;
27889;SDS011;15238;49.082;9.102;2023-11-21T11:59:25;0.90;;;0.50;;
27889;SDS011;15238;49.082;9.102;2023-11-21T12:01:26;1.60;;;0.50;;
27889;SDS011;15238;49.082;9.102;2023-11-21T12:03:27;0.35;;;0.20;;
27889;SDS011;15238;49.082;9.102;2023-11-21T12:05:27;0.20;;;0.20;;
27889;SDS011;15238;49.082;9.102;2023-11-21T12:07:39;0.47;;;0.30;;
27889;SDS011;15238;49.082;9.102;2023-11-21T12:09:51;1.60;;;0.57;;
27889;SDS011;15238;49.082;9.102;2023-11-21T12:11:52;0.80;;;0.60;;
27889;SDS011;15238;49.082;9.102;2023-11-21T12:13:54;0.70;;;0.50;;
27889;SDS011;15238;49.082;9.102;2023-11-21T12:15:55;0.75;;;0.50;;
27889;SDS011;15238;49.082;9.102;2023-11-21T12:17:55;0.40;;;0.40;;
27889;SDS011;15238;49.082;9.102;2023-11-21T12:20:03;1.10;;;0.40;;
27889;SDS011;15238;49.082;9.102;2023-11-21T12:22:04;0.85;;;0.47;;
27889;SDS011;15238;49.082;9.102;2023-11-21T12:24:05;0.40;;;0.38;;